Time;durP1;ratioP1;P1;durP2;ratioP2;P2;SDS_P1;SDS_P2;PMS_P1;PMS_P2;Temp;Humidity;BMP_temperature;BMP_pressure;BME280_temperature;BME280_humidity;BME280_pressure;Samples;Min_cycle;Max_cycle;Signal;HPM_P1;HPM_P2
2022/12/07 00:01:33;;;;;;;10.80;5.80;;;8.80;72.10;;;;;;2341713;53;21067;-74
2022/12/07 00:04:05;;;;;;;11.77;6.50;;;8.70;72.00;;;;;;2341863;54;20912;-75
2022/12/07 00:06:37;;;;;;;10.82;6.68;;;8.70;72.00;;;;;;2342861;54;21003;-74
2022/12/07 00:09:04;;;;;;;12.50;7.28;;;8.70;72.00;;;;;;2345469;54;21389;-74
2022/12/07 00:11:31;;;;;;;12.57;7.35;;;8.70;72.00;;;;;;2476820;53;20988;-72
2022/12/07 00:13:59;;;;;;;13.02;7.40;;;8.70;72.10;;;;;;2342178;54;21063;-73
2022/12/07 00:16:28;;;;;;;13.60;7.87;;;8.70;72.20;;;;;;2342845;54;20967;-76
2022/12/07 00:18:55;;;;;;;12.63;7.45;;;8.70;72.30;;;;;;2341800;54;20960;-75
2022/12/07 00:21:25;;;;;;;15.73;9.23;;;8.70;72.40;;;;;;2415393;53;21540;-75
2022/12/07 00:23:52;;;;;;;12.75;7.75;;;8.70;72.40;;;;;;2341939;53;21016;-75
2022/12/07 00:26:26;;;;;;;15.52;8.52;;;8.70;72.40;;;;;;2342291;54;21500;-74
2022/12/07 00:28:54;;;;;;;19.37;10.52;;;8.70;72.40;;;;;;2588332;53;20956;-75
2022/12/07 00:31:25;;;;;;;19.58;11.27;;;8.70;72.60;;;;;;2589003;53;21390;-76
2022/12/07 00:33:51;;;;;;;21.65;11.70;;;8.60;72.50;;;;;;2342152;54;20920;-76
2022/12/07 00:36:20;;;;;;;18.90;10.50;;;8.70;72.80;;;;;;2342568;54;20952;-75
2022/12/07 00:38:51;;;;;;;18.85;11.45;;;8.70;72.80;;;;;;2342303;54;20940;-72
2022/12/07 00:41:22;;;;;;;21.08;12.35;;;8.70;72.90;;;;;;2342364;54;20936;-74
2022/12/07 00:43:50;;;;;;;24.27;13.15;;;8.70;72.90;;;;;;2342672;54;20948;-75
2022/12/07 00:46:17;;;;;;;20.67;11.95;;;8.70;72.90;;;;;;2510251;53;21595;-76
2022/12/07 00:48:43;;;;;;;19.62;11.85;;;8.70;72.90;;;;;;2342871;54;20912;-76
2022/12/07 00:51:11;;;;;;;20.20;10.88;;;8.70;73.00;;;;;;2342600;54;21493;-72
2022/12/07 00:53:37;;;;;;;21.30;11.45;;;8.70;73.00;;;;;;2336666;54;21003;-75
2022/12/07 00:56:28;;;;;;;20.80;12.13;;;8.70;73.00;;;;;;2542277;53;20951;-73
2022/12/07 00:59:01;;;;;;;20.88;12.32;;;8.70;72.80;;;;;;2341464;53;20999;-73
2022/12/07 01:01:30;;;;;;;21.15;12.13;;;8.80;72.90;;;;;;2342346;54;20924;-76
2022/12/07 01:03:56;;;;;;;20.50;12.15;;;8.80;73.00;;;;;;2342200;54;20948;-72
2022/12/07 01:06:23;;;;;;;18.05;10.50;;;8.80;73.10;;;;;;2342642;54;20944;-74
2022/12/07 01:08:50;;;;;;;21.60;12.07;;;8.80;73.00;;;;;;2360788;53;20930;-74
2022/12/07 01:11:18;;;;;;;18.10;10.68;;;8.80;73.00;;;;;;2337141;54;21052;-76
2022/12/07 01:13:44;;;;;;;17.42;9.68;;;8.80;73.00;;;;;;2342581;54;20944;-75
2022/12/07 01:16:12;;;;;;;20.27;11.32;;;8.80;73.00;;;;;;2338296;54;20943;-75
2022/12/07 01:18:40;;;;;;;19.87;10.75;;;8.80;73.00;;;;;;2322602;54;20960;-73
2022/12/07 01:21:09;;;;;;;17.42;10.23;;;8.80;73.70;;;;;;2340227;54;20956;-73
2022/12/07 01:23:39;;;;;;;18.33;10.25;;;8.80;72.90;;;;;;2342858;54;21043;-74
2022/12/07 01:26:06;;;;;;;14.63;8.68;;;8.80;72.90;;;;;;2343877;53;21563;-73
2022/12/07 01:28:33;;;;;;;14.20;8.82;;;8.80;72.90;;;;;;2588555;52;20960;-75
2022/12/07 01:31:01;;;;;;;18.55;10.27;;;8.90;72.90;;;;;;2337014;54;21039;-76
2022/12/07 01:33:28;;;;;;;15.90;9.27;;;8.80;72.80;;;;;;2343321;53;20956;-73
2022/12/07 01:36:00;;;;;;;14.10;8.35;;;8.80;72.70;;;;;;2341682;54;20944;-75
2022/12/07 01:39:04;;;;;;;14.25;8.25;;;8.80;72.70;;;;;;2411454;53;21926;-76
2022/12/07 01:41:32;;;;;;;16.25;8.73;;;8.80;72.20;;;;;;2340405;54;20984;-75
2022/12/07 01:44:32;;;;;;;14.60;8.20;;;8.80;72.60;;;;;;2339588;54;21837;-75
2022/12/07 01:47:03;;;;;;;15.98;8.80;;;8.80;72.10;;;;;;2402844;53;21298;-74
2022/12/07 01:49:40;;;;;;;14.60;7.80;;;8.80;72.50;;;;;;2457399;53;21552;-75
2022/12/07 01:52:29;;;;;;;13.65;7.47;;;8.80;72.50;;;;;;2349583;53;20916;-75
2022/12/07 01:55:17;;;;;;;12.32;6.78;;;8.80;72.20;;;;;;2338990;54;21040;-73
2022/12/07 02:01:23;;;;;;;9.40;5.20;;;8.80;72.30;;;;;;2344991;53;22093;-74
2022/12/07 02:03:49;;;;;;;11.25;6.65;;;8.80;72.40;;;;;;2475784;52;20980;-75
2022/12/07 02:06:17;;;;;;;11.77;6.35;;;8.80;72.60;;;;;;2337017;54;20976;-73
2022/12/07 02:08:44;;;;;;;8.68;5.28;;;8.80;72.60;;;;;;2343250;54;21016;-74
2022/12/07 02:11:57;;;;;;;10.98;5.65;;;8.70;72.50;;;;;;2586110;53;20968;-73
2022/12/07 02:14:30;;;;;;;10.80;5.85;;;8.70;72.20;;;;;;2339302;54;21465;-74
2022/12/07 02:17:25;;;;;;;11.75;6.55;;;8.70;72.40;;;;;;2337000;54;20924;-73
2022/12/07 02:20:34;;;;;;;13.35;7.68;;;8.70;72.00;;;;;;2345183;53;20931;-75
2022/12/07 02:23:12;;;;;;;17.10;8.77;;;8.70;72.10;;;;;;2341511;53;21013;-75
2022/12/07 02:28:20;;;;;;;16.23;8.80;;;8.70;72.20;;;;;;2561234;52;21828;-73
2022/12/07 02:30:47;;;;;;;13.68;7.78;;;8.70;71.50;;;;;;2383287;53;20924;-76
2022/12/07 02:33:49;;;;;;;15.70;9.23;;;8.60;72.30;;;;;;2588537;53;20959;-73
2022/12/07 02:36:23;;;;;;;12.18;7.28;;;8.60;72.10;;;;;;2342230;54;21004;-75
2022/12/07 02:38:57;;;;;;;10.55;6.10;;;8.60;72.40;;;;;;2338735;53;21007;-73
2022/12/07 02:41:32;;;;;;;10.80;5.95;;;8.60;72.40;;;;;;2341656;53;20932;-75
2022/12/07 02:44:22;;;;;;;10.00;5.62;;;8.60;72.40;;;;;;2342449;55;20964;-75
2022/12/07 02:46:58;;;;;;;10.75;6.03;;;8.60;72.40;;;;;;2342431;54;21441;-74
2022/12/07 02:49:24;;;;;;;11.80;6.50;;;8.60;72.10;;;;;;2339072;54;21015;-73
2022/12/07 02:51:52;;;;;;;12.55;7.00;;;8.50;72.00;;;;;;2341095;54;20980;-75
2022/12/07 02:54:19;;;;;;;16.05;8.90;;;8.50;72.10;;;;;;2342315;54;21020;-75
2022/12/07 02:57:05;;;;;;;16.98;9.30;;;8.50;72.20;;;;;;2488703;53;20932;-74
2022/12/07 03:00:33;;;;;;;14.05;7.87;;;8.50;72.30;;;;;;2455731;53;21720;-74
2022/12/07 03:03:24;;;;;;;15.07;8.05;;;8.50;71.80;;;;;;2331397;54;20938;-75
2022/12/07 03:06:05;;;;;;;11.45;6.57;;;8.50;72.20;;;;;;2393803;53;20928;-74
2022/12/07 03:08:58;;;;;;;11.80;7.05;;;8.50;73.00;;;;;;2338480;54;21404;-73
2022/12/07 03:11:46;;;;;;;11.40;6.10;;;8.50;72.40;;;;;;2342320;54;20972;-75
2022/12/07 03:14:29;;;;;;;10.38;5.50;;;8.50;72.20;;;;;;2480879;53;21183;-74
2022/12/07 03:20:23;;;;;;;9.07;5.00;;;8.40;72.10;;;;;;2341939;54;21008;-75
2022/12/07 03:26:17;;;;;;;9.23;5.15;;;8.40;72.00;;;;;;2344632;53;20899;-73
2022/12/07 03:39:26;;;;;;;7.50;4.28;;;8.40;71.90;;;;;;2398176;53;21401;-75
2022/12/07 03:41:53;;;;;;;7.07;3.20;;;8.30;71.20;;;;;;2384079;53;20934;-73
2022/12/07 03:44:39;;;;;;;5.85;2.92;;;8.30;71.90;;;;;;2337723;54;21087;-75
2022/12/07 03:49:16;;;;;;;7.32;4.22;;;8.30;71.60;;;;;;2343107;53;21035;-75
2022/12/07 03:51:50;;;;;;;6.97;3.45;;;8.20;71.10;;;;;;2446811;53;20912;-75
2022/12/07 03:54:26;;;;;;;6.53;3.62;;;8.20;72.00;;;;;;2342096;54;21028;-74
2022/12/07 03:56:52;;;;;;;6.70;3.55;;;8.20;72.10;;;;;;2337310;54;21063;-74
2022/12/07 03:59:19;;;;;;;5.75;3.40;;;8.10;72.10;;;;;;2348782;53;21039;-74
2022/12/07 04:01:50;;;;;;;6.07;3.47;;;8.10;72.10;;;;;;2332306;54;20981;-74
2022/12/07 04:04:17;;;;;;;6.30;3.12;;;8.10;72.10;;;;;;2342290;53;21005;-75
2022/12/07 04:06:44;;;;;;;6.45;3.58;;;8.10;72.00;;;;;;2358777;53;20917;-74
2022/12/07 04:09:17;;;;;;;5.78;3.22;;;8.10;72.10;;;;;;2349051;52;20991;-74
2022/12/07 04:12:01;;;;;;;6.80;3.65;;;8.10;72.00;;;;;;2391280;53;21506;-73
2022/12/07 04:14:28;;;;;;;7.00;3.87;;;8.10;71.70;;;;;;2341649;54;20917;-74
2022/12/07 04:16:58;;;;;;;6.97;3.25;;;8.10;72.10;;;;;;2344630;54;21015;-72
2022/12/07 04:19:28;;;;;;;7.55;3.70;;;8.10;72.10;;;;;;2341944;53;20955;-75
2022/12/07 04:21:55;;;;;;;6.37;3.47;;;8.10;72.00;;;;;;2393495;53;21016;-72
2022/12/07 04:24:38;;;;;;;6.28;3.17;;;8.00;71.90;;;;;;2371049;53;20999;-73
2022/12/07 04:27:05;;;;;;;6.18;3.12;;;8.00;71.60;;;;;;2332762;54;22016;-76
2022/12/07 04:30:00;;;;;;;6.37;3.50;;;8.00;71.80;;;;;;2327421;54;20952;-72
2022/12/07 04:32:26;;;;;;;6.18;3.37;;;8.00;71.50;;;;;;2332991;54;20991;-75
2022/12/07 04:34:54;;;;;;;7.07;3.55;;;8.00;71.70;;;;;;2332551;54;20964;-75
2022/12/07 04:37:21;;;;;;;7.28;3.90;;;7.90;71.60;;;;;;2332777;54;20940;-73
2022/12/07 04:40:18;;;;;;;6.35;3.50;;;7.90;71.80;;;;;;2328733;54;21084;-74
2022/12/07 04:42:45;;;;;;;7.32;4.18;;;7.90;71.50;;;;;;2514319;53;21367;-73
2022/12/07 04:45:13;;;;;;;7.07;4.05;;;7.90;71.70;;;;;;2544785;53;20848;-75
2022/12/07 04:47:39;;;;;;;7.10;3.90;;;7.90;71.70;;;;;;2333138;54;21012;-75
2022/12/07 04:50:16;;;;;;;6.85;3.60;;;7.90;71.70;;;;;;2338453;54;21022;-75
2022/12/07 04:52:42;;;;;;;6.60;3.65;;;7.80;71.40;;;;;;2332735;53;20964;-76
2022/12/07 04:55:09;;;;;;;6.87;3.95;;;7.80;71.60;;;;;;2323529;54;21984;-75
2022/12/07 04:57:36;;;;;;;8.35;3.45;;;7.80;71.60;;;;;;2329122;54;20936;-75
2022/12/07 05:00:04;;;;;;;6.87;3.42;;;7.80;71.60;;;;;;2460196;53;21063;-73
2022/12/07 05:02:58;;;;;;;5.97;2.90;;;7.80;71.60;;;;;;2411853;53;21842;-72
2022/12/07 05:05:25;;;;;;;6.15;3.10;;;7.70;71.10;;;;;;2330936;54;21008;-72
2022/12/07 05:07:53;;;;;;;6.47;3.40;;;7.70;71.40;;;;;;2343121;53;20980;-73
2022/12/07 05:10:20;;;;;;;7.60;3.95;;;7.70;71.40;;;;;;2309550;55;21055;-74
2022/12/07 05:12:47;;;;;;;7.55;3.90;;;7.70;71.50;;;;;;2321173;54;21581;-74
2022/12/07 05:15:14;;;;;;;7.97;3.85;;;7.70;71.50;;;;;;2476873;52;22131;-75
2022/12/07 05:17:43;;;;;;;6.97;3.90;;;7.70;71.50;;;;;;2311614;54;21066;-73
2022/12/07 05:20:10;;;;;;;6.72;3.70;;;7.60;71.40;;;;;;2304103;54;22103;-75
2022/12/07 05:22:36;;;;;;;7.70;4.22;;;7.60;71.30;;;;;;2305172;54;20923;-75
2022/12/07 05:25:04;;;;;;;7.72;4.00;;;7.60;71.20;;;;;;2305814;54;20987;-72
2022/12/07 05:27:31;;;;;;;6.40;3.58;;;7.60;71.20;;;;;;2306126;54;21010;-71
2022/12/07 05:29:58;;;;;;;6.47;3.62;;;7.60;71.20;;;;;;2439687;53;21965;-73
2022/12/07 05:32:25;;;;;;;7.78;4.15;;;7.50;71.10;;;;;;2309557;54;20963;-75
2022/12/07 05:34:54;;;;;;;7.90;4.40;;;7.50;71.10;;;;;;2319293;54;20935;-73
2022/12/07 05:37:20;;;;;;;7.03;3.72;;;7.50;71.10;;;;;;2432265;53;21026;-71
2022/12/07 05:39:47;;;;;;;6.93;3.45;;;7.50;71.10;;;;;;2334693;53;21458;-75
2022/12/07 05:42:13;;;;;;;8.25;4.10;;;7.50;71.00;;;;;;2327383;54;21329;-74
2022/12/07 05:44:41;;;;;;;8.18;4.12;;;7.40;70.70;;;;;;2451551;53;21527;-74
2022/12/07 05:47:07;;;;;;;8.63;4.60;;;7.40;70.60;;;;;;2327871;54;21418;-72
2022/12/07 05:49:34;;;;;;;8.07;4.20;;;7.40;70.70;;;;;;2328157;54;21090;-73
2022/12/07 05:52:04;;;;;;;7.70;4.18;;;7.30;70.70;;;;;;2334139;53;20936;-75
2022/12/07 05:54:55;;;;;;;7.20;3.58;;;7.30;70.70;;;;;;2411530;53;21915;-74
2022/12/07 05:59:22;;;;;;;8.13;3.80;;;7.30;70.30;;;;;;2328191;54;20911;-73
2022/12/07 06:02:02;;;;;;;5.15;3.00;;;7.20;70.00;;;;;;2573304;53;20939;-72
2022/12/07 06:04:31;;;;;;;6.45;3.50;;;7.10;69.90;;;;;;2333439;53;20956;-75
2022/12/07 06:06:58;;;;;;;5.40;2.78;;;7.10;70.20;;;;;;2327793;54;20942;-74
2022/12/07 06:09:29;;;;;;;5.30;2.87;;;7.00;70.20;;;;;;2327612;54;20926;-74
2022/12/07 06:14:40;;;;;;;6.43;3.12;;;6.90;70.20;;;;;;2328242;54;21848;-72
2022/12/07 06:17:07;;;;;;;6.07;3.05;;;6.90;70.20;;;;;;2327893;54;20942;-75
2022/12/07 06:19:33;;;;;;;5.93;2.90;;;6.90;70.30;;;;;;2572396;53;20923;-75
2022/12/07 06:21:59;;;;;;;6.40;3.55;;;6.80;70.20;;;;;;2328042;54;20911;-75
2022/12/07 06:24:26;;;;;;;7.45;3.62;;;6.80;70.20;;;;;;2572365;53;21030;-73
2022/12/07 06:26:52;;;;;;;7.90;3.75;;;6.70;70.10;;;;;;2572388;53;21098;-73
2022/12/07 06:29:19;;;;;;;7.60;3.50;;;6.70;70.10;;;;;;2328194;54;20963;-73
2022/12/07 06:31:46;;;;;;;6.90;3.60;;;6.70;70.10;;;;;;2328976;54;20943;-73
2022/12/07 06:34:13;;;;;;;7.53;3.92;;;6.60;70.00;;;;;;2327922;54;20931;-75
2022/12/07 06:36:40;;;;;;;6.35;3.22;;;6.60;70.00;;;;;;2328532;54;20931;-74
2022/12/07 06:39:08;;;;;;;7.45;3.75;;;6.50;69.90;;;;;;2328269;54;21456;-72
2022/12/07 06:41:38;;;;;;;6.40;3.08;;;6.50;69.90;;;;;;2507842;53;20974;-75
2022/12/07 06:44:08;;;;;;;5.80;2.97;;;6.50;69.80;;;;;;2327977;54;20947;-74
2022/12/07 06:46:35;;;;;;;7.05;4.05;;;6.40;69.70;;;;;;2328148;54;21326;-71
2022/12/07 06:49:03;;;;;;;7.90;3.55;;;6.40;70.50;;;;;;2404504;53;20925;-74
2022/12/07 06:51:31;;;;;;;8.90;3.90;;;6.30;69.80;;;;;;2328991;53;20940;-74
2022/12/07 06:53:57;;;;;;;7.12;4.07;;;6.30;69.80;;;;;;2327974;54;21594;-73
2022/12/07 06:56:23;;;;;;;8.27;4.30;;;6.20;69.70;;;;;;2327962;54;20911;-73
2022/12/07 06:58:50;;;;;;;7.37;3.70;;;6.20;69.80;;;;;;2328773;54;20923;-71
2022/12/07 07:01:17;;;;;;;6.22;3.25;;;6.20;69.80;;;;;;2328620;54;20975;-75
2022/12/07 07:03:44;;;;;;;7.35;4.05;;;6.10;69.70;;;;;;2328224;54;21085;-73
2022/12/07 07:06:11;;;;;;;5.87;3.42;;;6.10;69.90;;;;;;2346490;53;20991;-75
2022/12/07 07:08:37;;;;;;;7.55;3.70;;;6.10;69.90;;;;;;2328664;54;21045;-75
2022/12/07 07:11:13;;;;;;;7.20;3.70;;;6.00;69.80;;;;;;2327687;54;20952;-74
2022/12/07 07:13:40;;;;;;;6.82;3.22;;;6.00;69.70;;;;;;2328971;54;20963;-72
2022/12/07 07:16:07;;;;;;;7.93;3.92;;;6.00;69.90;;;;;;2334421;53;21966;-72
2022/12/07 07:18:33;;;;;;;6.72;3.55;;;5.90;69.80;;;;;;2439838;53;21027;-74
2022/12/07 07:21:01;;;;;;;6.78;3.62;;;5.90;69.90;;;;;;2328634;54;20967;-74
2022/12/07 07:23:27;;;;;;;8.40;3.70;;;5.90;70.00;;;;;;2326997;54;20999;-75
2022/12/07 07:25:54;;;;;;;6.37;3.55;;;5.90;70.10;;;;;;2328627;54;21035;-72
2022/12/07 07:28:20;;;;;;;7.35;4.12;;;5.80;70.10;;;;;;2348978;53;20983;-72
2022/12/07 07:30:47;;;;;;;6.80;3.47;;;5.80;70.30;;;;;;2328068;54;20927;-75
2022/12/07 07:33:13;;;;;;;7.55;4.03;;;5.80;70.50;;;;;;2574034;52;21040;-72
2022/12/07 07:35:39;;;;;;;6.75;3.47;;;5.80;70.60;;;;;;2329678;53;21402;-73
2022/12/07 07:38:07;;;;;;;7.37;3.83;;;5.80;70.80;;;;;;2328065;54;20920;-72
2022/12/07 07:40:34;;;;;;;6.93;3.90;;;5.80;70.90;;;;;;2461990;53;20939;-73
2022/12/07 07:43:00;;;;;;;9.55;4.15;;;5.80;71.00;;;;;;2508561;53;21841;-71
2022/12/07 07:45:27;;;;;;;7.62;3.33;;;5.80;71.10;;;;;;2328411;54;20942;-73
2022/12/07 07:47:53;;;;;;;7.15;3.65;;;5.80;71.20;;;;;;2328677;54;21018;-72
2022/12/07 07:50:20;;;;;;;7.00;3.72;;;5.80;71.30;;;;;;2328145;54;21003;-75
2022/12/07 07:52:46;;;;;;;7.75;4.37;;;5.80;71.30;;;;;;2340089;53;21031;-73
2022/12/07 07:55:12;;;;;;;6.62;3.67;;;5.80;71.30;;;;;;2455341;53;21477;-71
2022/12/07 07:57:39;;;;;;;6.87;4.10;;;5.90;72.10;;;;;;2328385;54;21431;-74
2022/12/07 08:00:08;;;;;;;8.95;5.28;;;5.90;71.50;;;;;;2340163;53;21056;-72
2022/12/07 08:02:34;;;;;;;9.65;5.20;;;5.90;71.60;;;;;;2328659;53;20919;-72
2022/12/07 08:05:00;;;;;;;8.52;4.80;;;5.90;71.70;;;;;;2328693;54;20926;-72
2022/12/07 08:07:27;;;;;;;7.30;4.40;;;5.90;71.80;;;;;;2334757;53;21047;-73
2022/12/07 08:09:54;;;;;;;9.75;5.25;;;5.90;71.90;;;;;;2328920;53;20974;-75
2022/12/07 08:12:20;;;;;;;9.40;4.65;;;6.00;72.10;;;;;;2328017;54;20924;-74
2022/12/07 08:14:47;;;;;;;8.25;4.35;;;6.00;72.10;;;;;;2543808;53;21968;-72
2022/12/07 08:17:16;;;;;;;10.10;4.85;;;6.00;72.20;;;;;;2349437;53;21561;-73
2022/12/07 08:19:43;;;;;;;10.32;6.30;;;6.10;73.00;;;;;;2332954;54;21034;-74
2022/12/07 08:22:09;;;;;;;9.38;5.35;;;6.10;72.30;;;;;;2456705;53;20960;-74
2022/12/07 08:24:35;;;;;;;9.95;5.35;;;6.10;72.40;;;;;;2412311;53;20975;-73
2022/12/07 08:27:02;;;;;;;8.00;4.50;;;6.20;72.40;;;;;;2327750;54;21397;-74
2022/12/07 08:29:28;;;;;;;8.70;4.82;;;6.20;72.40;;;;;;2328541;54;21040;-73
2022/12/07 08:31:55;;;;;;;8.07;4.60;;;6.20;72.30;;;;;;2328331;54;22176;-72
2022/12/07 08:34:21;;;;;;;9.18;4.60;;;6.30;72.40;;;;;;2327562;54;20923;-75
2022/12/07 08:36:48;;;;;;;10.05;4.97;;;6.30;72.40;;;;;;2339137;53;20934;-75
2022/12/07 08:39:15;;;;;;;8.70;5.03;;;6.30;72.50;;;;;;2328157;54;20967;-75
2022/12/07 08:41:57;;;;;;;8.27;4.62;;;6.40;72.70;;;;;;2327950;54;21226;-75
2022/12/07 08:44:24;;;;;;;7.85;4.05;;;6.40;72.80;;;;;;2327928;54;20887;-75
2022/12/07 08:46:53;;;;;;;6.95;4.12;;;6.40;72.90;;;;;;2327865;54;21034;-73
2022/12/07 08:49:40;;;;;;;8.23;4.30;;;6.50;72.90;;;;;;2327577;54;21022;-73
2022/12/07 08:52:10;;;;;;;6.57;3.70;;;6.50;72.70;;;;;;2327471;54;21072;-76
2022/12/07 08:54:38;;;;;;;7.47;4.12;;;6.50;72.90;;;;;;2328287;54;20934;-74
2022/12/07 08:57:04;;;;;;;9.02;4.68;;;6.60;73.00;;;;;;2328230;54;20923;-71
2022/12/07 08:59:31;;;;;;;9.82;5.25;;;6.60;73.10;;;;;;2327890;54;21062;-75
2022/12/07 09:02:12;;;;;;;9.40;4.90;;;6.70;73.20;;;;;;2328488;54;21132;-75
2022/12/07 09:04:38;;;;;;;9.50;5.05;;;6.70;73.10;;;;;;2328627;54;20943;-74
2022/12/07 09:07:05;;;;;;;9.75;5.37;;;6.80;73.50;;;;;;2328583;54;21983;-75
2022/12/07 09:09:32;;;;;;;10.73;6.20;;;6.80;73.60;;;;;;2572993;53;20970;-73
2022/12/07 09:12:00;;;;;;;12.95;6.80;;;6.90;73.70;;;;;;2343836;53;20926;-73
2022/12/07 09:14:27;;;;;;;10.70;5.82;;;6.90;73.70;;;;;;2329552;54;21086;-74
2022/12/07 09:16:54;;;;;;;11.10;6.05;;;7.00;73.90;;;;;;2466214;53;20955;-75
2022/12/07 09:19:20;;;;;;;11.00;6.85;;;7.10;74.00;;;;;;2343688;53;20960;-74
2022/12/07 09:21:46;;;;;;;11.18;6.62;;;7.10;74.10;;;;;;2468570;53;21068;-75
2022/12/07 09:24:13;;;;;;;11.48;6.82;;;7.20;74.10;;;;;;2336244;53;21050;-73
2022/12/07 09:26:40;;;;;;;13.02;7.68;;;7.20;74.10;;;;;;2572966;53;21297;-75
2022/12/07 09:29:06;;;;;;;13.93;8.60;;;7.30;74.20;;;;;;2327974;54;20945;-73
2022/12/07 09:31:35;;;;;;;15.35;9.65;;;7.40;74.30;;;;;;2332391;53;20956;-73
2022/12/07 09:34:30;;;;;;;14.23;8.32;;;7.40;74.20;;;;;;2330455;53;21885;-73
2022/12/07 09:36:56;;;;;;;11.63;7.15;;;7.50;74.00;;;;;;2327301;54;21883;-73
2022/12/07 09:39:29;;;;;;;10.18;6.30;;;7.60;74.30;;;;;;2483315;53;20941;-74
2022/12/07 09:42:27;;;;;;;11.93;7.00;;;7.60;74.20;;;;;;2327720;54;21023;-74
2022/12/07 09:45:07;;;;;;;9.50;5.40;;;7.70;74.00;;;;;;2327457;54;20903;-74
2022/12/07 09:47:34;;;;;;;10.25;5.68;;;7.80;74.00;;;;;;2568535;53;20982;-75
2022/12/07 09:50:21;;;;;;;9.82;5.60;;;7.80;74.20;;;;;;2328596;54;21553;-72
2022/12/07 09:52:48;;;;;;;8.60;4.95;;;7.90;73.80;;;;;;2497762;53;22057;-73
2022/12/07 09:58:23;;;;;;;7.30;4.40;;;8.00;74.00;;;;;;2554265;53;20931;-74
2022/12/07 10:01:46;;;;;;;8.82;4.70;;;8.10;74.20;;;;;;2428192;53;20947;-73
2022/12/07 10:04:29;;;;;;;7.35;4.03;;;8.10;73.40;;;;;;2328421;54;21984;-72
2022/12/07 10:06:58;;;;;;;7.00;3.72;;;8.20;73.60;;;;;;2328352;54;20905;-73
2022/12/07 10:09:35;;;;;;;9.23;4.43;;;8.20;73.70;;;;;;2572113;53;20958;-73
2022/12/07 10:12:11;;;;;;;7.30;4.45;;;8.30;73.50;;;;;;2329239;54;20955;-74
2022/12/07 10:14:55;;;;;;;9.40;4.60;;;8.30;73.30;;;;;;2532790;53;21119;-74
2022/12/07 10:17:53;;;;;;;7.93;4.62;;;8.30;72.90;;;;;;2328316;54;21058;-73
2022/12/07 10:20:26;;;;;;;8.25;5.00;;;8.40;72.80;;;;;;2418791;53;20987;-73
2022/12/07 10:23:07;;;;;;;7.20;4.70;;;8.40;73.00;;;;;;2328315;54;20983;-75
2022/12/07 10:25:36;;;;;;;6.15;3.47;;;8.40;73.20;;;;;;2494025;53;21388;-73
2022/12/07 10:28:13;;;;;;;7.50;4.03;;;8.50;73.40;;;;;;2328959;54;20923;-73
2022/12/07 10:31:03;;;;;;;8.30;4.68;;;8.50;73.20;;;;;;2389476;53;20931;-74
2022/12/07 10:33:57;;;;;;;6.53;3.80;;;8.50;72.90;;;;;;2328506;54;20931;-75
2022/12/07 10:36:42;;;;;;;8.95;4.80;;;8.60;73.10;;;;;;2439097;53;21475;-74
2022/12/07 10:39:16;;;;;;;7.10;4.25;;;8.60;73.00;;;;;;2327643;54;21520;-72
2022/12/07 10:42:04;;;;;;;8.45;5.07;;;8.70;73.40;;;;;;2353824;53;20995;-76
2022/12/07 10:44:31;;;;;;;9.63;5.32;;;8.70;72.90;;;;;;2572785;53;22003;-75
2022/12/07 10:48:38;;;;;;;9.18;5.50;;;8.70;73.30;;;;;;2434984;52;20923;-72
2022/12/07 10:51:23;;;;;;;9.18;4.30;;;8.70;72.70;;;;;;2381389;53;20907;-74
2022/12/07 10:59:58;;;;;;;8.23;4.95;;;8.80;73.00;;;;;;2572398;53;21814;-74
2022/12/07 11:04:35;;;;;;;5.25;3.00;;;8.90;72.20;;;;;;2326683;54;20935;-74
2022/12/07 11:07:34;;;;;;;7.70;3.37;;;8.90;72.10;;;;;;2313063;54;21952;-74
2022/12/07 11:10:27;;;;;;;6.68;3.60;;;8.90;72.80;;;;;;2328832;54;21015;-74
2022/12/07 11:19:20;;;;;;;7.57;4.22;;;8.90;73.10;;;;;;2328625;54;20954;-75
2022/12/07 11:22:17;;;;;;;7.95;3.97;;;9.00;73.20;;;;;;2327645;54;20979;-75
2022/12/07 11:34:39;;;;;;;7.90;4.28;;;9.10;73.00;;;;;;2357697;53;21439;-74
2022/12/07 11:37:12;;;;;;;7.87;4.53;;;9.20;72.40;;;;;;2306666;54;1319455;-74
2022/12/07 11:39:45;;;;;;;11.48;6.45;;;9.20;72.90;;;;;;2328164;54;20923;-75
2022/12/07 11:42:18;;;;;;;10.82;5.90;;;9.30;72.90;;;;;;2328775;54;20971;-73
2022/12/07 11:44:51;;;;;;;9.45;5.37;;;9.30;72.90;;;;;;2555675;53;20995;-74
2022/12/07 11:50:53;;;;;;;11.52;6.55;;;9.30;73.00;;;;;;2327855;54;20967;-73
2022/12/07 11:53:46;;;;;;;9.00;4.45;;;9.30;71.90;;;;;;2328557;54;20927;-72
2022/12/07 11:56:16;;;;;;;9.52;5.18;;;9.30;72.40;;;;;;2328707;54;20919;-74
2022/12/07 12:00:14;;;;;;;8.70;5.12;;;9.40;72.90;;;;;;2331591;53;20971;-72
2022/12/07 12:02:49;;;;;;;9.30;4.82;;;9.40;71.90;;;;;;2329518;54;21412;-75
2022/12/07 12:05:52;;;;;;;10.15;5.40;;;9.40;72.90;;;;;;2441395;53;21970;-75
2022/12/07 12:08:36;;;;;;;12.20;6.62;;;9.40;72.90;;;;;;2328157;54;20951;-75
2022/12/07 12:31:14;;;;;;;6.40;3.37;;;9.40;72.80;;;;;;2567982;53;20919;-75
2022/12/07 12:33:48;;;;;;;7.70;4.35;;;9.70;72.90;;;;;;2332401;53;21063;-74
2022/12/07 12:37:00;;;;;;;9.45;4.90;;;9.70;73.30;;;;;;2380070;52;21894;-74
2022/12/07 12:39:26;;;;;;;9.18;5.43;;;9.70;72.80;;;;;;2334523;53;20957;-75
2022/12/07 12:45:09;;;;;;;10.00;5.68;;;9.80;73.70;;;;;;2329524;54;20971;-74
2022/12/07 12:54:11;;;;;;;9.05;5.62;;;9.80;73.40;;;;;;2378802;53;21012;-75
2022/12/07 12:57:13;;;;;;;7.37;4.12;;;9.90;72.30;;;;;;2334190;54;21908;-75
2022/12/07 12:59:59;;;;;;;6.97;4.23;;;10.00;71.80;;;;;;2381907;53;20935;-74
2022/12/07 13:02:55;;;;;;;7.85;4.75;;;10.00;71.90;;;;;;2330849;54;21101;-75
2022/12/07 13:05:31;;;;;;;7.80;4.55;;;10.00;71.80;;;;;;2341469;53;20931;-74
2022/12/07 13:08:20;;;;;;;6.53;3.62;;;10.00;72.40;;;;;;2465568;53;20915;-76
2022/12/07 13:10:47;;;;;;;7.60;4.20;;;10.00;72.10;;;;;;2402613;53;21512;-76
2022/12/07 13:13:47;;;;;;;6.72;3.10;;;10.10;72.20;;;;;;2327235;54;21010;-75
2022/12/07 13:16:59;;;;;;;7.05;3.55;;;10.10;71.40;;;;;;2421586;53;20943;-75
2022/12/07 13:22:58;;;;;;;6.10;3.55;;;10.10;70.50;;;;;;2332804;53;21012;-74
2022/12/07 13:25:35;;;;;;;4.97;2.85;;;10.20;70.10;;;;;;2572290;53;20923;-74
2022/12/07 13:28:19;;;;;;;5.12;2.90;;;10.10;71.40;;;;;;2327743;54;20907;-76
2022/12/07 13:34:36;;;;;;;5.00;2.95;;;10.20;71.00;;;;;;2327691;54;20911;-75
2022/12/07 13:37:12;;;;;;;6.70;3.17;;;10.20;70.80;;;;;;2327952;54;20983;-74
2022/12/07 13:41:10;;;;;;;6.55;3.53;;;10.20;71.10;;;;;;2332008;54;20980;-75
2022/12/07 13:43:48;;;;;;;6.25;3.17;;;10.20;69.60;;;;;;2478191;53;20975;-75
2022/12/07 13:46:17;;;;;;;6.12;3.30;;;10.20;70.90;;;;;;2328462;54;21998;-75
2022/12/07 13:48:49;;;;;;;6.90;3.65;;;10.20;71.30;;;;;;2460703;53;20943;-75
2022/12/07 13:51:26;;;;;;;5.18;3.17;;;10.20;71.20;;;;;;2327591;54;20919;-74
2022/12/07 13:54:08;;;;;;;7.30;3.67;;;10.20;70.70;;;;;;2352626;53;20935;-74
2022/12/07 13:56:36;;;;;;;5.68;3.10;;;10.20;70.50;;;;;;2328175;54;20923;-75
2022/12/07 13:59:02;;;;;;;7.12;3.40;;;10.20;70.90;;;;;;2332147;54;21911;-75
2022/12/07 14:01:30;;;;;;;5.57;2.58;;;10.20;70.80;;;;;;2335534;53;21042;-74
2022/12/07 14:04:17;;;;;;;6.18;3.10;;;10.20;70.80;;;;;;2330290;53;20935;-76
2022/12/07 14:06:50;;;;;;;4.97;3.00;;;10.20;70.20;;;;;;2328701;54;21003;-75
2022/12/07 14:09:24;;;;;;;5.55;3.33;;;10.20;70.70;;;;;;2572701;53;20904;-75
2022/12/07 14:11:51;;;;;;;5.03;2.50;;;10.20;70.70;;;;;;2327757;54;21006;-73
2022/12/07 14:14:25;;;;;;;6.15;3.25;;;10.20;71.00;;;;;;2329341;54;20952;-75
2022/12/07 14:17:02;;;;;;;5.55;3.15;;;10.20;70.70;;;;;;2331369;54;20919;-73
2022/12/07 14:19:51;;;;;;;5.15;2.85;;;10.20;70.40;;;;;;2415856;52;20954;-74
2022/12/07 14:26:18;;;;;;;5.85;2.97;;;10.20;69.70;;;;;;2576312;52;20949;-74
2022/12/07 14:28:46;;;;;;;5.53;2.97;;;10.20;69.30;;;;;;2328666;54;20978;-75
2022/12/07 14:31:16;;;;;;;5.50;2.85;;;10.20;70.50;;;;;;2572080;53;20919;-73
2022/12/07 14:33:48;;;;;;;4.85;2.80;;;10.20;70.10;;;;;;2327816;54;21106;-73
2022/12/07 14:36:15;;;;;;;5.25;3.00;;;10.20;70.20;;;;;;2335067;53;22002;-73
2022/12/07 14:39:34;;;;;;;4.90;2.72;;;10.20;70.20;;;;;;2326790;57;21031;-73
2022/12/07 14:42:00;;;;;;;5.15;2.50;;;10.20;69.40;;;;;;2327557;54;20979;-73
2022/12/07 14:44:27;;;;;;;5.18;2.67;;;10.10;70.10;;;;;;2327759;54;21046;-74
2022/12/07 14:46:55;;;;;;;4.30;2.37;;;10.10;70.10;;;;;;2357832;53;21035;-75
2022/12/07 14:50:35;;;;;;;5.00;2.55;;;10.10;70.10;;;;;;2367273;53;21012;-75
2022/12/07 14:53:06;;;;;;;4.45;2.35;;;10.10;69.10;;;;;;2339594;53;20919;-75
2022/12/07 14:55:47;;;;;;;4.78;2.55;;;10.10;69.80;;;;;;2565012;53;20961;-76
2022/12/07 14:58:15;;;;;;;4.43;2.33;;;10.10;69.90;;;;;;2572031;53;21847;-73
2022/12/07 15:00:41;;;;;;;5.12;2.58;;;10.00;69.80;;;;;;2327753;54;20967;-75
2022/12/07 15:03:07;;;;;;;4.90;2.53;;;10.00;69.80;;;;;;2507541;53;20959;-73
2022/12/07 15:05:39;;;;;;;5.37;2.70;;;10.00;69.70;;;;;;2572613;53;21062;-75
2022/12/07 15:11:32;;;;;;;5.12;2.83;;;10.00;68.80;;;;;;2328035;54;21801;-72
2022/12/07 15:14:09;;;;;;;5.37;2.95;;;9.90;70.60;;;;;;2328124;54;20946;-75
2022/12/07 15:16:35;;;;;;;5.60;3.15;;;9.90;70.70;;;;;;2327732;54;21968;-75